sensor_id;sensor_type;location;lat;lon;timestamp;P1;durP1;ratioP1;P2;durP2;ratioP2
15331;SDS011;7766;51.534;6.722;2023-06-14T00:00:45;7.03;;;4.78;;
15331;SDS011;7766;51.534;6.722;2023-06-14T00:01:48;7.88;;;4.30;;
15331;SDS011;7766;51.534;6.722;2023-06-14T00:02:49;5.22;;;4.63;;
15331;SDS011;7766;51.534;6.722;2023-06-14T00:03:50;6.38;;;4.28;;
15331;SDS011;7766;51.534;6.722;2023-06-14T00:04:52;5.35;;;4.32;;
15331;SDS011;7766;51.534;6.722;2023-06-14T00:05:53;7.35;;;4.57;;
15331;SDS011;7766;51.534;6.722;2023-06-14T00:06:55;5.82;;;4.22;;
15331;SDS011;7766;51.534;6.722;2023-06-14T00:07:56;4.97;;;4.30;;
15331;SDS011;7766;51.534;6.722;2023-06-14T00:09:00;6.55;;;4.25;;
15331;SDS011;7766;51.534;6.722;2023-06-14T00:10:02;9.73;;;4.70;;
15331;SDS011;7766;51.534;6.722;2023-06-14T00:11:04;7.90;;;4.40;;
15331;SDS011;7766;51.534;6.722;2023-06-14T00:12:06;6.70;;;4.20;;
15331;SDS011;7766;51.534;6.722;2023-06-14T00:13:08;5.65;;;4.47;;
15331;SDS011;7766;51.534;6.722;2023-06-14T00:14:10;7.68;;;4.60;;
15331;SDS011;7766;51.534;6.722;2023-06-14T00:15:10;5.25;;;4.32;;
15331;SDS011;7766;51.534;6.722;2023-06-14T00:16:12;7.90;;;4.20;;
15331;SDS011;7766;51.534;6.722;2023-06-14T00:17:13;6.85;;;4.65;;
15331;SDS011;7766;51.534;6.722;2023-06-14T00:18:16;5.13;;;4.35;;
15331;SDS011;7766;51.534;6.722;2023-06-14T00:19:17;6.25;;;5.07;;
15331;SDS011;7766;51.534;6.722;2023-06-14T00:20:19;6.32;;;4.50;;
15331;SDS011;7766;51.534;6.722;2023-06-14T00:21:20;5.95;;;4.68;;
15331;SDS011;7766;51.534;6.722;2023-06-14T00:22:21;6.65;;;4.45;;
15331;SDS011;7766;51.534;6.722;2023-06-14T00:23:24;5.55;;;4.35;;
15331;SDS011;7766;51.534;6.722;2023-06-14T00:24:25;5.85;;;4.30;;
15331;SDS011;7766;51.534;6.722;2023-06-14T00:25:26;7.22;;;4.82;;
15331;SDS011;7766;51.534;6.722;2023-06-14T00:26:27;5.00;;;4.25;;
15331;SDS011;7766;51.534;6.722;2023-06-14T00:27:28;5.75;;;4.70;;
15331;SDS011;7766;51.534;6.722;2023-06-14T00:28:29;7.32;;;4.30;;
15331;SDS011;7766;51.534;6.722;2023-06-14T00:29:30;5.05;;;4.55;;
15331;SDS011;7766;51.534;6.722;2023-06-14T00:30:31;5.22;;;4.45;;
15331;SDS011;7766;51.534;6.722;2023-06-14T00:31:31;5.85;;;4.90;;
15331;SDS011;7766;51.534;6.722;2023-06-14T00:32:32;5.47;;;4.70;;
15331;SDS011;7766;51.534;6.722;2023-06-14T00:33:33;6.55;;;4.47;;
15331;SDS011;7766;51.534;6.722;2023-06-14T00:34:34;6.45;;;4.80;;
15331;SDS011;7766;51.534;6.722;2023-06-14T00:35:35;5.63;;;4.57;;
15331;SDS011;7766;51.534;6.722;2023-06-14T00:36:36;5.22;;;4.22;;
15331;SDS011;7766;51.534;6.722;2023-06-14T00:37:38;5.15;;;4.40;;
15331;SDS011;7766;51.534;6.722;2023-06-14T00:38:39;6.72;;;4.68;;
15331;SDS011;7766;51.534;6.722;2023-06-14T00:39:40;4.65;;;4.25;;
15331;SDS011;7766;51.534;6.722;2023-06-14T00:40:41;5.35;;;4.70;;
15331;SDS011;7766;51.534;6.722;2023-06-14T00:41:42;6.20;;;4.30;;
15331;SDS011;7766;51.534;6.722;2023-06-14T00:42:43;5.85;;;4.47;;
15331;SDS011;7766;51.534;6.722;2023-06-14T00:43:43;7.90;;;4.63;;
15331;SDS011;7766;51.534;6.722;2023-06-14T00:44:44;8.90;;;4.80;;
15331;SDS011;7766;51.534;6.722;2023-06-14T00:45:45;6.33;;;4.40;;
15331;SDS011;7766;51.534;6.722;2023-06-14T00:46:46;5.27;;;4.00;;
15331;SDS011;7766;51.534;6.722;2023-06-14T00:47:47;7.13;;;4.75;;
15331;SDS011;7766;51.534;6.722;2023-06-14T00:48:52;6.70;;;4.38;;
15331;SDS011;7766;51.534;6.722;2023-06-14T00:49:55;10.47;;;6.00;;
15331;SDS011;7766;51.534;6.722;2023-06-14T00:50:57;9.57;;;6.97;;
15331;SDS011;7766;51.534;6.722;2023-06-14T00:52:03;10.77;;;7.87;;
15331;SDS011;7766;51.534;6.722;2023-06-14T00:53:06;24.13;;;17.63;;
15331;SDS011;7766;51.534;6.722;2023-06-14T00:54:07;10.75;;;8.43;;
15331;SDS011;7766;51.534;6.722;2023-06-14T00:55:09;5.87;;;4.70;;
15331;SDS011;7766;51.534;6.722;2023-06-14T00:56:10;9.50;;;4.80;;
15331;SDS011;7766;51.534;6.722;2023-06-14T00:57:13;6.13;;;4.47;;
15331;SDS011;7766;51.534;6.722;2023-06-14T00:58:14;5.13;;;4.25;;
15331;SDS011;7766;51.534;6.722;2023-06-14T00:59:16;6.03;;;4.20;;
15331;SDS011;7766;51.534;6.722;2023-06-14T01:00:17;5.73;;;4.30;;
15331;SDS011;7766;51.534;6.722;2023-06-14T01:01:18;5.03;;;4.00;;
15331;SDS011;7766;51.534;6.722;2023-06-14T01:02:19;5.80;;;4.33;;
15331;SDS011;7766;51.534;6.722;2023-06-14T01:03:20;5.97;;;4.30;;
15331;SDS011;7766;51.534;6.722;2023-06-14T01:04:22;6.30;;;4.43;;
15331;SDS011;7766;51.534;6.722;2023-06-14T01:05:24;6.63;;;4.20;;
15331;SDS011;7766;51.534;6.722;2023-06-14T01:06:43;8.18;;;3.90;;
15331;SDS011;7766;51.534;6.722;2023-06-14T01:08:00;6.38;;;4.35;;
15331;SDS011;7766;51.534;6.722;2023-06-14T01:09:31;4.37;;;3.97;;
15331;SDS011;7766;51.534;6.722;2023-06-14T01:10:49;5.27;;;4.20;;
15331;SDS011;7766;51.534;6.722;2023-06-14T01:12:14;7.07;;;4.20;;
15331;SDS011;7766;51.534;6.722;2023-06-14T01:13:39;6.47;;;4.50;;
15331;SDS011;7766;51.534;6.722;2023-06-14T01:14:43;6.93;;;4.33;;
15331;SDS011;7766;51.534;6.722;2023-06-14T01:15:46;5.53;;;3.80;;
15331;SDS011;7766;51.534;6.722;2023-06-14T01:16:49;4.40;;;3.63;;
15331;SDS011;7766;51.534;6.722;2023-06-14T01:17:53;5.93;;;4.47;;
15331;SDS011;7766;51.534;6.722;2023-06-14T01:18:57;6.20;;;3.90;;
15331;SDS011;7766;51.534;6.722;2023-06-14T01:19:58;8.10;;;4.47;;
15331;SDS011;7766;51.534;6.722;2023-06-14T01:21:03;6.77;;;4.37;;
15331;SDS011;7766;51.534;6.722;2023-06-14T01:22:05;6.67;;;4.23;;
15331;SDS011;7766;51.534;6.722;2023-06-14T01:23:07;9.00;;;4.50;;
15331;SDS011;7766;51.534;6.722;2023-06-14T01:24:09;6.83;;;4.53;;
15331;SDS011;7766;51.534;6.722;2023-06-14T01:25:11;5.37;;;4.30;;
15331;SDS011;7766;51.534;6.722;2023-06-14T01:26:12;5.60;;;4.13;;
15331;SDS011;7766;51.534;6.722;2023-06-14T01:27:15;5.87;;;3.77;;
15331;SDS011;7766;51.534;6.722;2023-06-14T01:28:19;5.40;;;4.10;;
15331;SDS011;7766;51.534;6.722;2023-06-14T01:29:22;4.27;;;3.87;;
15331;SDS011;7766;51.534;6.722;2023-06-14T01:30:25;4.13;;;3.70;;
15331;SDS011;7766;51.534;6.722;2023-06-14T01:31:26;6.97;;;4.17;;
15331;SDS011;7766;51.534;6.722;2023-06-14T01:32:29;5.17;;;3.80;;
15331;SDS011;7766;51.534;6.722;2023-06-14T01:33:30;4.33;;;3.77;;
15331;SDS011;7766;51.534;6.722;2023-06-14T01:34:34;5.80;;;4.17;;
15331;SDS011;7766;51.534;6.722;2023-06-14T01:35:35;4.40;;;3.80;;
15331;SDS011;7766;51.534;6.722;2023-06-14T01:36:36;5.17;;;3.70;;
15331;SDS011;7766;51.534;6.722;2023-06-14T01:37:43;4.43;;;3.47;;
15331;SDS011;7766;51.534;6.722;2023-06-14T01:38:47;7.17;;;3.90;;
15331;SDS011;7766;51.534;6.722;2023-06-14T01:39:50;8.00;;;3.93;;
15331;SDS011;7766;51.534;6.722;2023-06-14T01:40:51;7.57;;;3.97;;
15331;SDS011;7766;51.534;6.722;2023-06-14T01:41:58;4.13;;;3.43;;
15331;SDS011;7766;51.534;6.722;2023-06-14T01:43:00;5.77;;;3.93;;
15331;SDS011;7766;51.534;6.722;2023-06-14T01:44:03;6.97;;;3.63;;
15331;SDS011;7766;51.534;6.722;2023-06-14T01:45:05;5.17;;;3.77;;
15331;SDS011;7766;51.534;6.722;2023-06-14T01:46:09;5.07;;;3.70;;
15331;SDS011;7766;51.534;6.722;2023-06-14T01:47:10;4.90;;;3.60;;
15331;SDS011;7766;51.534;6.722;2023-06-14T01:48:12;4.27;;;3.60;;
15331;SDS011;7766;51.534;6.722;2023-06-14T01:49:13;5.17;;;3.73;;
15331;SDS011;7766;51.534;6.722;2023-06-14T01:50:15;8.00;;;3.80;;
15331;SDS011;7766;51.534;6.722;2023-06-14T01:51:16;5.10;;;3.40;;
15331;SDS011;7766;51.534;6.722;2023-06-14T01:52:17;5.10;;;3.63;;
15331;SDS011;7766;51.534;6.722;2023-06-14T01:53:19;5.93;;;3.83;;
15331;SDS011;7766;51.534;6.722;2023-06-14T01:54:20;6.40;;;4.00;;
15331;SDS011;7766;51.534;6.722;2023-06-14T01:55:22;3.93;;;3.43;;
15331;SDS011;7766;51.534;6.722;2023-06-14T01:56:27;5.07;;;3.47;;
15331;SDS011;7766;51.534;6.722;2023-06-14T01:57:28;4.53;;;3.60;;
15331;SDS011;7766;51.534;6.722;2023-06-14T01:58:29;4.37;;;3.83;;
15331;SDS011;7766;51.534;6.722;2023-06-14T01:59:31;5.03;;;4.00;;
15331;SDS011;7766;51.534;6.722;2023-06-14T02:00:35;6.17;;;3.53;;
15331;SDS011;7766;51.534;6.722;2023-06-14T02:01:36;6.30;;;3.90;;
15331;SDS011;7766;51.534;6.722;2023-06-14T02:02:37;6.03;;;3.70;;
15331;SDS011;7766;51.534;6.722;2023-06-14T02:03:38;6.40;;;3.73;;
15331;SDS011;7766;51.534;6.722;2023-06-14T02:04:39;4.17;;;3.30;;
15331;SDS011;7766;51.534;6.722;2023-06-14T02:05:40;5.70;;;3.80;;
15331;SDS011;7766;51.534;6.722;2023-06-14T02:06:41;5.20;;;3.63;;
15331;SDS011;7766;51.534;6.722;2023-06-14T02:07:42;6.03;;;3.40;;
15331;SDS011;7766;51.534;6.722;2023-06-14T02:08:43;8.70;;;3.73;;
15331;SDS011;7766;51.534;6.722;2023-06-14T02:09:44;5.27;;;3.60;;
15331;SDS011;7766;51.534;6.722;2023-06-14T02:10:45;4.23;;;3.63;;
15331;SDS011;7766;51.534;6.722;2023-06-14T02:11:46;6.10;;;4.10;;
15331;SDS011;7766;51.534;6.722;2023-06-14T02:12:47;7.43;;;3.87;;
15331;SDS011;7766;51.534;6.722;2023-06-14T02:13:48;6.17;;;3.50;;
15331;SDS011;7766;51.534;6.722;2023-06-14T02:14:50;5.77;;;3.53;;
15331;SDS011;7766;51.534;6.722;2023-06-14T02:15:51;7.17;;;3.83;;
15331;SDS011;7766;51.534;6.722;2023-06-14T02:16:54;5.90;;;3.80;;
15331;SDS011;7766;51.534;6.722;2023-06-14T02:17:55;5.67;;;3.33;;
15331;SDS011;7766;51.534;6.722;2023-06-14T02:18:56;6.07;;;3.70;;
15331;SDS011;7766;51.534;6.722;2023-06-14T02:19:57;4.63;;;3.50;;
15331;SDS011;7766;51.534;6.722;2023-06-14T02:20:58;5.30;;;3.30;;
15331;SDS011;7766;51.534;6.722;2023-06-14T02:21:59;6.30;;;3.80;;
15331;SDS011;7766;51.534;6.722;2023-06-14T02:23:00;5.07;;;3.73;;
15331;SDS011;7766;51.534;6.722;2023-06-14T02:24:01;5.73;;;3.60;;
15331;SDS011;7766;51.534;6.722;2023-06-14T02:25:02;3.93;;;3.50;;
15331;SDS011;7766;51.534;6.722;2023-06-14T02:26:03;5.40;;;3.73;;
15331;SDS011;7766;51.534;6.722;2023-06-14T02:27:04;9.07;;;3.27;;
15331;SDS011;7766;51.534;6.722;2023-06-14T02:28:06;3.83;;;3.20;;
15331;SDS011;7766;51.534;6.722;2023-06-14T02:29:07;4.80;;;3.27;;
15331;SDS011;7766;51.534;6.722;2023-06-14T02:30:14;4.40;;;3.27;;
15331;SDS011;7766;51.534;6.722;2023-06-14T02:31:15;4.80;;;3.30;;
15331;SDS011;7766;51.534;6.722;2023-06-14T02:32:16;6.83;;;3.50;;
15331;SDS011;7766;51.534;6.722;2023-06-14T02:33:17;4.30;;;3.50;;
15331;SDS011;7766;51.534;6.722;2023-06-14T02:34:18;5.50;;;3.43;;
15331;SDS011;7766;51.534;6.722;2023-06-14T02:35:21;4.93;;;3.53;;
15331;SDS011;7766;51.534;6.722;2023-06-14T02:36:26;4.00;;;3.60;;
15331;SDS011;7766;51.534;6.722;2023-06-14T02:37:29;7.10;;;3.90;;
15331;SDS011;7766;51.534;6.722;2023-06-14T02:38:30;7.83;;;3.57;;
15331;SDS011;7766;51.534;6.722;2023-06-14T02:39:31;5.07;;;3.27;;
15331;SDS011;7766;51.534;6.722;2023-06-14T02:40:32;6.10;;;3.60;;
15331;SDS011;7766;51.534;6.722;2023-06-14T02:41:33;5.13;;;3.63;;
15331;SDS011;7766;51.534;6.722;2023-06-14T02:42:34;5.80;;;3.40;;
15331;SDS011;7766;51.534;6.722;2023-06-14T02:43:35;4.43;;;3.33;;
15331;SDS011;7766;51.534;6.722;2023-06-14T02:44:37;4.73;;;3.53;;
15331;SDS011;7766;51.534;6.722;2023-06-14T02:45:38;4.43;;;3.07;;
15331;SDS011;7766;51.534;6.722;2023-06-14T02:46:40;5.50;;;3.50;;
15331;SDS011;7766;51.534;6.722;2023-06-14T02:47:43;7.97;;;3.50;;
15331;SDS011;7766;51.534;6.722;2023-06-14T02:48:45;6.13;;;3.27;;
15331;SDS011;7766;51.534;6.722;2023-06-14T02:49:46;4.50;;;3.17;;
15331;SDS011;7766;51.534;6.722;2023-06-14T02:50:47;6.07;;;3.60;;
15331;SDS011;7766;51.534;6.722;2023-06-14T02:51:48;4.73;;;3.37;;
15331;SDS011;7766;51.534;6.722;2023-06-14T02:52:49;5.90;;;3.10;;
15331;SDS011;7766;51.534;6.722;2023-06-14T02:53:49;4.73;;;2.70;;
15331;SDS011;7766;51.534;6.722;2023-06-14T02:54:51;4.97;;;3.00;;
15331;SDS011;7766;51.534;6.722;2023-06-14T02:55:52;4.17;;;3.37;;
15331;SDS011;7766;51.534;6.722;2023-06-14T02:56:55;4.77;;;3.20;;
15331;SDS011;7766;51.534;6.722;2023-06-14T02:57:56;5.13;;;3.10;;
15331;SDS011;7766;51.534;6.722;2023-06-14T02:58:57;3.83;;;3.20;;
15331;SDS011;7766;51.534;6.722;2023-06-14T02:59:58;4.33;;;3.30;;
15331;SDS011;7766;51.534;6.722;2023-06-14T03:00:59;4.73;;;3.10;;
15331;SDS011;7766;51.534;6.722;2023-06-14T03:02:01;4.07;;;3.10;;
15331;SDS011;7766;51.534;6.722;2023-06-14T03:03:03;5.93;;;3.30;;
15331;SDS011;7766;51.534;6.722;2023-06-14T03:04:04;4.73;;;3.53;;
15331;SDS011;7766;51.534;6.722;2023-06-14T03:05:05;4.20;;;3.37;;
15331;SDS011;7766;51.534;6.722;2023-06-14T03:06:07;3.77;;;3.30;;
15331;SDS011;7766;51.534;6.722;2023-06-14T03:07:09;5.83;;;3.33;;
15331;SDS011;7766;51.534;6.722;2023-06-14T03:08:10;6.37;;;3.30;;
15331;SDS011;7766;51.534;6.722;2023-06-14T03:09:11;3.60;;;3.20;;
15331;SDS011;7766;51.534;6.722;2023-06-14T03:10:12;4.00;;;3.60;;
15331;SDS011;7766;51.534;6.722;2023-06-14T03:11:14;6.17;;;3.33;;
15331;SDS011;7766;51.534;6.722;2023-06-14T03:12:16;4.93;;;3.07;;
15331;SDS011;7766;51.534;6.722;2023-06-14T03:13:18;4.10;;;2.90;;
15331;SDS011;7766;51.534;6.722;2023-06-14T03:14:21;6.77;;;3.00;;
15331;SDS011;7766;51.534;6.722;2023-06-14T03:15:22;5.00;;;3.30;;
15331;SDS011;7766;51.534;6.722;2023-06-14T03:16:24;5.77;;;3.23;;
15331;SDS011;7766;51.534;6.722;2023-06-14T03:17:25;3.77;;;2.90;;
15331;SDS011;7766;51.534;6.722;2023-06-14T03:18:30;3.80;;;3.10;;
15331;SDS011;7766;51.534;6.722;2023-06-14T03:19:35;4.90;;;2.97;;
15331;SDS011;7766;51.534;6.722;2023-06-14T03:20:36;5.93;;;2.87;;
15331;SDS011;7766;51.534;6.722;2023-06-14T03:21:37;5.80;;;3.10;;
15331;SDS011;7766;51.534;6.722;2023-06-14T03:22:43;6.70;;;3.17;;
15331;SDS011;7766;51.534;6.722;2023-06-14T03:23:46;8.43;;;3.40;;
15331;SDS011;7766;51.534;6.722;2023-06-14T03:24:50;4.30;;;3.03;;
15331;SDS011;7766;51.534;6.722;2023-06-14T03:25:52;4.93;;;3.07;;
15331;SDS011;7766;51.534;6.722;2023-06-14T03:26:53;8.13;;;3.20;;
15331;SDS011;7766;51.534;6.722;2023-06-14T03:27:54;6.83;;;2.90;;
15331;SDS011;7766;51.534;6.722;2023-06-14T03:28:56;5.43;;;2.73;;
15331;SDS011;7766;51.534;6.722;2023-06-14T03:29:57;5.90;;;2.90;;
15331;SDS011;7766;51.534;6.722;2023-06-14T03:30:58;4.70;;;3.10;;
15331;SDS011;7766;51.534;6.722;2023-06-14T03:31:59;4.00;;;2.97;;
15331;SDS011;7766;51.534;6.722;2023-06-14T03:33:02;5.93;;;2.83;;
15331;SDS011;7766;51.534;6.722;2023-06-14T03:34:04;5.27;;;3.00;;
15331;SDS011;7766;51.534;6.722;2023-06-14T03:35:05;3.47;;;2.80;;
15331;SDS011;7766;51.534;6.722;2023-06-14T03:36:07;6.00;;;3.43;;
15331;SDS011;7766;51.534;6.722;2023-06-14T03:37:08;5.80;;;2.90;;
15331;SDS011;7766;51.534;6.722;2023-06-14T03:38:09;5.53;;;3.30;;
15331;SDS011;7766;51.534;6.722;2023-06-14T03:39:10;5.37;;;2.83;;
15331;SDS011;7766;51.534;6.722;2023-06-14T03:40:12;6.93;;;3.27;;
15331;SDS011;7766;51.534;6.722;2023-06-14T03:41:14;6.27;;;3.63;;
15331;SDS011;7766;51.534;6.722;2023-06-14T03:42:15;5.30;;;3.00;;
15331;SDS011;7766;51.534;6.722;2023-06-14T03:43:16;5.33;;;3.33;;
15331;SDS011;7766;51.534;6.722;2023-06-14T03:44:18;5.67;;;3.17;;
15331;SDS011;7766;51.534;6.722;2023-06-14T03:45:19;5.00;;;3.50;;
15331;SDS011;7766;51.534;6.722;2023-06-14T03:46:20;4.03;;;2.87;;
15331;SDS011;7766;51.534;6.722;2023-06-14T03:47:21;5.77;;;3.30;;
15331;SDS011;7766;51.534;6.722;2023-06-14T03:48:22;3.97;;;2.90;;
15331;SDS011;7766;51.534;6.722;2023-06-14T03:49:23;6.20;;;3.00;;
15331;SDS011;7766;51.534;6.722;2023-06-14T03:50:24;3.50;;;3.13;;
15331;SDS011;7766;51.534;6.722;2023-06-14T03:51:25;8.80;;;3.23;;
15331;SDS011;7766;51.534;6.722;2023-06-14T03:52:28;5.63;;;2.90;;
15331;SDS011;7766;51.534;6.722;2023-06-14T03:53:31;5.00;;;3.00;;
15331;SDS011;7766;51.534;6.722;2023-06-14T03:54:31;5.70;;;3.10;;
15331;SDS011;7766;51.534;6.722;2023-06-14T03:55:32;6.20;;;3.00;;
15331;SDS011;7766;51.534;6.722;2023-06-14T03:56:34;4.30;;;3.10;;
15331;SDS011;7766;51.534;6.722;2023-06-14T03:57:35;5.30;;;3.07;;
15331;SDS011;7766;51.534;6.722;2023-06-14T03:58:36;5.53;;;2.97;;
15331;SDS011;7766;51.534;6.722;2023-06-14T03:59:37;4.67;;;3.23;;
15331;SDS011;7766;51.534;6.722;2023-06-14T04:00:38;4.23;;;3.20;;
15331;SDS011;7766;51.534;6.722;2023-06-14T04:01:40;3.57;;;2.93;;
15331;SDS011;7766;51.534;6.722;2023-06-14T04:02:46;3.57;;;2.93;;
15331;SDS011;7766;51.534;6.722;2023-06-14T04:03:47;5.90;;;3.07;;
15331;SDS011;7766;51.534;6.722;2023-06-14T04:04:48;4.73;;;3.13;;
15331;SDS011;7766;51.534;6.722;2023-06-14T04:05:51;5.33;;;3.10;;
15331;SDS011;7766;51.534;6.722;2023-06-14T04:06:56;5.03;;;3.10;;
15331;SDS011;7766;51.534;6.722;2023-06-14T04:07:58;4.73;;;3.27;;
15331;SDS011;7766;51.534;6.722;2023-06-14T04:09:00;4.27;;;2.83;;
15331;SDS011;7766;51.534;6.722;2023-06-14T04:10:02;6.77;;;3.03;;
15331;SDS011;7766;51.534;6.722;2023-06-14T04:11:03;4.83;;;3.30;;
15331;SDS011;7766;51.534;6.722;2023-06-14T04:12:04;6.77;;;3.30;;
15331;SDS011;7766;51.534;6.722;2023-06-14T04:13:06;4.50;;;3.33;;
15331;SDS011;7766;51.534;6.722;2023-06-14T04:14:07;3.87;;;2.87;;
15331;SDS011;7766;51.534;6.722;2023-06-14T04:15:08;3.53;;;2.83;;
15331;SDS011;7766;51.534;6.722;2023-06-14T04:16:09;4.03;;;3.23;;
15331;SDS011;7766;51.534;6.722;2023-06-14T04:17:10;6.33;;;3.03;;
15331;SDS011;7766;51.534;6.722;2023-06-14T04:18:11;6.83;;;2.90;;
15331;SDS011;7766;51.534;6.722;2023-06-14T04:19:13;4.53;;;2.80;;
15331;SDS011;7766;51.534;6.722;2023-06-14T04:20:14;3.33;;;2.80;;
15331;SDS011;7766;51.534;6.722;2023-06-14T04:21:16;5.10;;;2.90;;
15331;SDS011;7766;51.534;6.722;2023-06-14T04:22:18;5.20;;;3.13;;
15331;SDS011;7766;51.534;6.722;2023-06-14T04:23:19;8.00;;;3.40;;
15331;SDS011;7766;51.534;6.722;2023-06-14T04:24:21;6.03;;;2.70;;
15331;SDS011;7766;51.534;6.722;2023-06-14T04:25:23;4.93;;;3.60;;
15331;SDS011;7766;51.534;6.722;2023-06-14T04:26:25;8.27;;;3.33;;
15331;SDS011;7766;51.534;6.722;2023-06-14T04:27:29;3.83;;;3.23;;
15331;SDS011;7766;51.534;6.722;2023-06-14T04:28:35;7.57;;;3.40;;
15331;SDS011;7766;51.534;6.722;2023-06-14T04:29:40;4.13;;;2.73;;
15331;SDS011;7766;51.534;6.722;2023-06-14T04:30:44;4.13;;;2.93;;
15331;SDS011;7766;51.534;6.722;2023-06-14T04:31:45;4.43;;;2.97;;
15331;SDS011;7766;51.534;6.722;2023-06-14T04:32:46;5.87;;;3.33;;
15331;SDS011;7766;51.534;6.722;2023-06-14T04:33:47;3.47;;;2.70;;
15331;SDS011;7766;51.534;6.722;2023-06-14T04:34:51;4.27;;;2.90;;
15331;SDS011;7766;51.534;6.722;2023-06-14T04:35:55;6.60;;;3.43;;
15331;SDS011;7766;51.534;6.722;2023-06-14T04:36:56;4.23;;;2.90;;
15331;SDS011;7766;51.534;6.722;2023-06-14T04:37:59;6.90;;;3.07;;
15331;SDS011;7766;51.534;6.722;2023-06-14T04:39:04;4.93;;;3.00;;
15331;SDS011;7766;51.534;6.722;2023-06-14T04:40:06;2.97;;;2.63;;
15331;SDS011;7766;51.534;6.722;2023-06-14T04:41:07;5.87;;;2.67;;
15331;SDS011;7766;51.534;6.722;2023-06-14T04:42:11;3.00;;;2.70;;
15331;SDS011;7766;51.534;6.722;2023-06-14T04:43:14;7.50;;;2.93;;
15331;SDS011;7766;51.534;6.722;2023-06-14T04:44:17;5.93;;;2.97;;
15331;SDS011;7766;51.534;6.722;2023-06-14T04:45:19;5.00;;;2.80;;
15331;SDS011;7766;51.534;6.722;2023-06-14T04:46:21;3.83;;;3.20;;
15331;SDS011;7766;51.534;6.722;2023-06-14T04:47:23;6.57;;;3.03;;
15331;SDS011;7766;51.534;6.722;2023-06-14T04:48:29;3.53;;;2.60;;
15331;SDS011;7766;51.534;6.722;2023-06-14T04:49:31;4.93;;;2.63;;
15331;SDS011;7766;51.534;6.722;2023-06-14T04:50:32;5.40;;;2.80;;
15331;SDS011;7766;51.534;6.722;2023-06-14T04:51:35;3.80;;;2.50;;
15331;SDS011;7766;51.534;6.722;2023-06-14T04:52:36;5.97;;;3.47;;
15331;SDS011;7766;51.534;6.722;2023-06-14T04:53:37;3.40;;;2.50;;
15331;SDS011;7766;51.534;6.722;2023-06-14T04:54:39;6.03;;;2.90;;
15331;SDS011;7766;51.534;6.722;2023-06-14T04:55:43;6.47;;;3.30;;
15331;SDS011;7766;51.534;6.722;2023-06-14T04:56:44;3.37;;;2.57;;
15331;SDS011;7766;51.534;6.722;2023-06-14T04:57:46;5.70;;;2.60;;
15331;SDS011;7766;51.534;6.722;2023-06-14T04:58:47;3.70;;;2.83;;
15331;SDS011;7766;51.534;6.722;2023-06-14T04:59:48;6.87;;;2.77;;
15331;SDS011;7766;51.534;6.722;2023-06-14T05:00:55;3.20;;;2.70;;
15331;SDS011;7766;51.534;6.722;2023-06-14T05:01:56;4.47;;;3.43;;
15331;SDS011;7766;51.534;6.722;2023-06-14T05:02:57;5.57;;;2.73;;
15331;SDS011;7766;51.534;6.722;2023-06-14T05:03:58;6.10;;;2.93;;
15331;SDS011;7766;51.534;6.722;2023-06-14T05:05:00;5.43;;;2.60;;
15331;SDS011;7766;51.534;6.722;2023-06-14T05:06:01;7.10;;;2.90;;
15331;SDS011;7766;51.534;6.722;2023-06-14T05:07:02;4.67;;;2.70;;
15331;SDS011;7766;51.534;6.722;2023-06-14T05:08:04;3.30;;;2.33;;
15331;SDS011;7766;51.534;6.722;2023-06-14T05:09:04;5.03;;;2.80;;
15331;SDS011;7766;51.534;6.722;2023-06-14T05:10:05;5.23;;;2.90;;
15331;SDS011;7766;51.534;6.722;2023-06-14T05:11:07;8.30;;;3.13;;
15331;SDS011;7766;51.534;6.722;2023-06-14T05:12:08;7.43;;;2.87;;
15331;SDS011;7766;51.534;6.722;2023-06-14T05:13:09;4.47;;;2.57;;
15331;SDS011;7766;51.534;6.722;2023-06-14T05:14:11;8.43;;;3.10;;
15331;SDS011;7766;51.534;6.722;2023-06-14T05:15:12;6.20;;;2.57;;
15331;SDS011;7766;51.534;6.722;2023-06-14T05:16:14;9.33;;;2.63;;
15331;SDS011;7766;51.534;6.722;2023-06-14T05:17:16;4.70;;;2.97;;
15331;SDS011;7766;51.534;6.722;2023-06-14T05:18:17;2.73;;;2.33;;
15331;SDS011;7766;51.534;6.722;2023-06-14T05:19:19;3.40;;;2.80;;
15331;SDS011;7766;51.534;6.722;2023-06-14T05:20:24;4.23;;;2.60;;
15331;SDS011;7766;51.534;6.722;2023-06-14T05:21:26;3.80;;;2.70;;
15331;SDS011;7766;51.534;6.722;2023-06-14T05:22:27;9.37;;;3.17;;
15331;SDS011;7766;51.534;6.722;2023-06-14T05:23:28;5.37;;;3.00;;
15331;SDS011;7766;51.534;6.722;2023-06-14T05:24:28;4.73;;;2.97;;
15331;SDS011;7766;51.534;6.722;2023-06-14T05:25:30;7.97;;;2.80;;
15331;SDS011;7766;51.534;6.722;2023-06-14T05:26:31;8.67;;;3.00;;
15331;SDS011;7766;51.534;6.722;2023-06-14T05:27:33;3.53;;;2.80;;
15331;SDS011;7766;51.534;6.722;2023-06-14T05:28:35;3.97;;;3.20;;
15331;SDS011;7766;51.534;6.722;2023-06-14T05:29:36;6.27;;;3.03;;
15331;SDS011;7766;51.534;6.722;2023-06-14T05:30:38;6.10;;;2.80;;
15331;SDS011;7766;51.534;6.722;2023-06-14T05:31:39;3.10;;;2.80;;
15331;SDS011;7766;51.534;6.722;2023-06-14T05:32:40;4.20;;;2.80;;
15331;SDS011;7766;51.534;6.722;2023-06-14T05:33:41;5.80;;;3.10;;
15331;SDS011;7766;51.534;6.722;2023-06-14T05:34:43;7.10;;;2.97;;
15331;SDS011;7766;51.534;6.722;2023-06-14T05:35:44;3.70;;;2.45;;
15331;SDS011;7766;51.534;6.722;2023-06-14T05:36:45;3.17;;;2.80;;
15331;SDS011;7766;51.534;6.722;2023-06-14T05:37:46;5.03;;;2.88;;
15331;SDS011;7766;51.534;6.722;2023-06-14T05:38:48;8.53;;;2.83;;
15331;SDS011;7766;51.534;6.722;2023-06-14T05:39:50;6.97;;;2.70;;
15331;SDS011;7766;51.534;6.722;2023-06-14T05:40:51;3.47;;;2.60;;
15331;SDS011;7766;51.534;6.722;2023-06-14T05:41:53;4.55;;;2.72;;
15331;SDS011;7766;51.534;6.722;2023-06-14T05:42:55;5.45;;;2.95;;
15331;SDS011;7766;51.534;6.722;2023-06-14T05:43:56;4.60;;;2.67;;
15331;SDS011;7766;51.534;6.722;2023-06-14T05:44:58;10.88;;;3.10;;
15331;SDS011;7766;51.534;6.722;2023-06-14T05:45:59;5.35;;;2.92;;
15331;SDS011;7766;51.534;6.722;2023-06-14T05:47:00;4.78;;;2.80;;
15331;SDS011;7766;51.534;6.722;2023-06-14T05:48:01;5.50;;;2.70;;
15331;SDS011;7766;51.534;6.722;2023-06-14T05:49:02;4.28;;;2.65;;
15331;SDS011;7766;51.534;6.722;2023-06-14T05:50:03;5.17;;;2.57;;
15331;SDS011;7766;51.534;6.722;2023-06-14T05:51:04;9.05;;;3.05;;
15331;SDS011;7766;51.534;6.722;2023-06-14T05:52:09;7.57;;;2.47;;
15331;SDS011;7766;51.534;6.722;2023-06-14T05:53:11;5.63;;;2.80;;
15331;SDS011;7766;51.534;6.722;2023-06-14T05:54:12;4.53;;;2.75;;
15331;SDS011;7766;51.534;6.722;2023-06-14T05:55:13;4.90;;;2.90;;
15331;SDS011;7766;51.534;6.722;2023-06-14T05:56:16;7.53;;;3.13;;
15331;SDS011;7766;51.534;6.722;2023-06-14T05:57:18;5.82;;;2.65;;
15331;SDS011;7766;51.534;6.722;2023-06-14T05:58:19;5.28;;;3.05;;
15331;SDS011;7766;51.534;6.722;2023-06-14T05:59:19;10.77;;;3.60;;
15331;SDS011;7766;51.534;6.722;2023-06-14T06:00:20;4.15;;;2.50;;
15331;SDS011;7766;51.534;6.722;2023-06-14T06:01:22;3.78;;;2.65;;
15331;SDS011;7766;51.534;6.722;2023-06-14T06:02:23;6.07;;;2.80;;
15331;SDS011;7766;51.534;6.722;2023-06-14T06:03:24;7.07;;;2.88;;
15331;SDS011;7766;51.534;6.722;2023-06-14T06:04:25;3.40;;;2.50;;
15331;SDS011;7766;51.534;6.722;2023-06-14T06:05:26;4.53;;;2.60;;
15331;SDS011;7766;51.534;6.722;2023-06-14T06:06:27;7.47;;;3.05;;
15331;SDS011;7766;51.534;6.722;2023-06-14T06:07:28;6.88;;;2.95;;
15331;SDS011;7766;51.534;6.722;2023-06-14T06:08:30;5.35;;;2.45;;
15331;SDS011;7766;51.534;6.722;2023-06-14T06:09:32;5.85;;;2.85;;
15331;SDS011;7766;51.534;6.722;2023-06-14T06:10:33;4.32;;;2.78;;
15331;SDS011;7766;51.534;6.722;2023-06-14T06:11:34;4.22;;;2.63;;
15331;SDS011;7766;51.534;6.722;2023-06-14T06:12:35;8.45;;;2.83;;
15331;SDS011;7766;51.534;6.722;2023-06-14T06:13:36;5.85;;;3.40;;
15331;SDS011;7766;51.534;6.722;2023-06-14T06:14:37;6.63;;;3.00;;
15331;SDS011;7766;51.534;6.722;2023-06-14T06:15:38;6.32;;;3.17;;
15331;SDS011;7766;51.534;6.722;2023-06-14T06:16:39;7.97;;;2.55;;
15331;SDS011;7766;51.534;6.722;2023-06-14T06:17:40;10.00;;;3.00;;
15331;SDS011;7766;51.534;6.722;2023-06-14T06:18:41;3.90;;;2.50;;
15331;SDS011;7766;51.534;6.722;2023-06-14T06:19:42;5.32;;;2.45;;